createdAt,value
2019-03-04T00:01:34.296Z,28.20
2019-03-04T00:04:04.958Z,30.27
2019-03-04T00:06:35.462Z,30.67
2019-03-04T00:09:07.044Z,31.93
2019-03-04T00:11:39.218Z,30.87
2019-03-04T00:14:10.077Z,31.33
2019-03-04T00:16:40.671Z,29.57
2019-03-04T00:19:12.312Z,29.93
2019-03-04T00:21:43.022Z,29.10
2019-03-04T00:24:13.688Z,27.37
2019-03-04T00:26:44.558Z,27.93
2019-03-04T00:29:15.390Z,27.87
2019-03-04T00:31:46.167Z,27.67
2019-03-04T00:34:17.090Z,25.53
2019-03-04T00:36:47.614Z,26.87
2019-03-04T00:39:18.320Z,25.23
2019-03-04T00:41:49.201Z,26.70
2019-03-04T00:44:20.104Z,25.10
2019-03-04T00:46:50.701Z,25.47
2019-03-04T00:49:21.739Z,25.47
2019-03-04T00:51:52.253Z,25.00
2019-03-04T00:54:23.141Z,26.30
2019-03-04T00:56:53.847Z,24.00
2019-03-04T00:59:24.681Z,26.27
2019-03-04T01:01:55.554Z,25.90
2019-03-04T01:04:26.218Z,24.40
2019-03-04T01:06:56.807Z,25.13
2019-03-04T01:09:27.512Z,26.10
2019-03-04T01:11:58.052Z,25.60
2019-03-04T01:14:28.973Z,25.57
2019-03-04T01:16:59.419Z,24.37
2019-03-04T01:19:30.561Z,23.70
2019-03-04T01:22:01.090Z,22.70
2019-03-04T01:24:32.022Z,22.13
2019-03-04T01:27:02.916Z,22.63
2019-03-04T01:29:33.654Z,24.93
2019-03-04T01:32:04.432Z,22.53
2019-03-04T01:34:36.069Z,22.30
2019-03-04T01:37:06.886Z,22.90
2019-03-04T01:39:37.587Z,22.47
2019-03-04T01:42:08.236Z,21.90
2019-03-04T01:44:39.440Z,20.47
2019-03-04T01:47:09.972Z,20.67
2019-03-04T01:49:40.908Z,21.70
2019-03-04T01:52:11.373Z,21.53
2019-03-04T01:54:41.902Z,20.63
2019-03-04T01:57:12.930Z,20.53
2019-03-04T01:59:43.582Z,20.30
2019-03-04T02:02:14.385Z,19.67
2019-03-04T02:04:44.825Z,18.60
2019-03-04T02:07:15.547Z,17.97
2019-03-04T02:09:46.002Z,19.37
2019-03-04T02:12:17.117Z,18.93
2019-03-04T02:14:47.845Z,18.00
2019-03-04T02:17:19.037Z,17.90
2019-03-04T02:19:50.723Z,17.83
2019-03-04T02:22:22.259Z,18.43
2019-03-04T02:24:52.713Z,18.03
2019-03-04T02:27:23.447Z,18.63
2019-03-04T02:29:53.998Z,17.40
2019-03-04T02:32:24.649Z,17.10
2019-03-04T02:34:55.262Z,16.27
2019-03-04T02:37:25.803Z,15.97
2019-03-04T02:39:56.647Z,14.80
2019-03-04T02:42:27.177Z,14.43
2019-03-04T02:44:57.916Z,14.77
2019-03-04T02:47:28.673Z,14.53
2019-03-04T02:50:00.515Z,13.77
2019-03-04T02:52:31.365Z,15.73
2019-03-04T02:55:02.139Z,13.87
2019-03-04T02:57:33.348Z,12.90
2019-03-04T03:00:04.117Z,13.20
2019-03-04T03:02:34.818Z,12.77
2019-03-04T03:05:06.271Z,12.90
2019-03-04T03:07:36.988Z,12.37
2019-03-04T03:10:07.772Z,12.93
2019-03-04T03:12:38.260Z,12.30
2019-03-04T03:15:09.366Z,12.20
2019-03-04T03:17:40.163Z,11.70
2019-03-04T03:20:11.410Z,11.33
2019-03-04T03:22:42.044Z,12.10
2019-03-04T03:25:12.571Z,11.30
2019-03-04T03:27:43.481Z,12.07
2019-03-04T03:30:14.591Z,11.00
2019-03-04T03:32:45.410Z,11.70
2019-03-04T03:35:16.191Z,12.90
2019-03-04T03:37:46.857Z,11.97
2019-03-04T03:40:17.495Z,11.27
2019-03-04T03:42:48.016Z,12.43
2019-03-04T03:45:18.777Z,10.63
2019-03-04T03:47:50.604Z,11.40
2019-03-04T03:50:21.103Z,9.87
2019-03-04T03:52:51.942Z,10.30
2019-03-04T03:55:23.148Z,9.87
2019-03-04T03:57:53.845Z,10.23
2019-03-04T04:00:25.089Z,10.17
2019-03-04T04:02:56.923Z,9.90
2019-03-04T04:05:27.965Z,9.23
2019-03-04T04:07:58.709Z,9.23
2019-03-04T04:10:29.763Z,9.37
2019-03-04T04:13:03.843Z,9.13
2019-03-04T04:15:34.696Z,9.10
2019-03-04T04:18:05.568Z,9.63
2019-03-04T04:20:36.282Z,9.13
2019-03-04T04:23:06.850Z,8.50
2019-03-04T04:25:37.589Z,8.40
2019-03-04T04:28:09.790Z,8.60
2019-03-04T04:30:40.895Z,9.37
2019-03-04T04:33:11.518Z,8.60
2019-03-04T04:35:42.438Z,7.93
2019-03-04T04:38:12.962Z,8.30
2019-03-04T04:40:43.786Z,10.63
2019-03-04T04:43:14.428Z,8.43
2019-03-04T04:45:45.110Z,8.30
2019-03-04T04:48:15.775Z,7.83
2019-03-04T04:50:46.421Z,7.13
2019-03-04T04:53:17.176Z,7.77
2019-03-04T04:55:47.806Z,7.30
2019-03-04T04:58:18.644Z,7.47
2019-03-04T05:00:49.779Z,8.60
2019-03-04T05:03:20.552Z,7.33
2019-03-04T05:05:51.359Z,7.67
2019-03-04T05:08:22.219Z,7.87
2019-03-04T05:10:53.011Z,7.03
2019-03-04T05:13:23.967Z,7.33
2019-03-04T05:15:54.648Z,7.53
2019-03-04T05:18:25.406Z,7.07
2019-03-04T05:20:56.005Z,6.73
2019-03-04T05:23:27.022Z,7.03
2019-03-04T05:25:57.779Z,7.73
2019-03-04T05:28:28.521Z,7.00
2019-03-04T05:31:00.275Z,6.77
2019-03-04T05:33:31.322Z,7.43
2019-03-04T05:36:02.259Z,6.87
2019-03-04T05:38:34.035Z,7.13
2019-03-04T05:41:04.887Z,6.77
2019-03-04T05:43:35.752Z,7.47
2019-03-04T05:46:06.862Z,7.57
2019-03-04T05:48:37.753Z,7.00
2019-03-04T05:51:08.462Z,7.80
2019-03-04T05:53:39.127Z,6.93
2019-03-04T05:56:10.284Z,6.43
2019-03-04T05:58:41.188Z,6.77
2019-03-04T06:01:31.772Z,6.63
2019-03-04T06:04:07.512Z,5.90
2019-03-04T06:06:56.854Z,6.10
2019-03-04T06:09:27.439Z,6.20
2019-03-04T06:11:57.975Z,5.83
2019-03-04T06:14:28.684Z,6.80
2019-03-04T06:16:59.220Z,6.27
2019-03-04T06:19:31.000Z,6.13
2019-03-04T06:22:01.598Z,5.77
2019-03-04T06:24:32.614Z,6.30
2019-03-04T06:27:03.425Z,6.23
2019-03-04T06:29:33.931Z,6.50
2019-03-04T06:32:04.812Z,6.37
2019-03-04T06:34:35.499Z,6.40
2019-03-04T06:37:06.556Z,5.90
2019-03-04T06:39:38.920Z,5.63
2019-03-04T06:42:09.963Z,6.10
2019-03-04T06:44:40.621Z,5.97
2019-03-04T06:47:11.175Z,5.10
2019-03-04T06:49:44.081Z,5.93
2019-03-04T06:52:15.098Z,5.43
2019-03-04T06:55:08.262Z,5.57
2019-03-04T06:57:45.605Z,5.77
2019-03-04T07:00:46.152Z,5.67
2019-03-04T07:03:26.737Z,5.47
2019-03-04T07:05:57.577Z,5.90
2019-03-04T07:09:00.624Z,5.73
2019-03-04T07:11:33.051Z,6.67
2019-03-04T07:14:04.323Z,5.83
2019-03-04T07:16:34.972Z,5.27
2019-03-04T07:19:13.810Z,5.27
2019-03-04T07:21:45.396Z,5.50
2019-03-04T07:24:16.362Z,5.53
2019-03-04T07:26:47.424Z,5.03
2019-03-04T07:29:18.236Z,5.33
2019-03-04T07:31:49.031Z,5.13
2019-03-04T07:34:19.745Z,5.33
2019-03-04T07:36:50.567Z,5.23
2019-03-04T07:39:22.718Z,5.23
2019-03-04T07:42:01.274Z,5.40
2019-03-04T07:44:31.890Z,5.43
2019-03-04T07:47:02.729Z,5.30
2019-03-04T07:49:34.756Z,5.63
2019-03-04T07:52:05.211Z,5.63
2019-03-04T07:54:35.931Z,5.50
2019-03-04T07:57:06.551Z,5.10
2019-03-04T07:59:37.197Z,5.13
2019-03-04T08:02:07.849Z,5.40
2019-03-04T08:04:38.465Z,5.03
2019-03-04T08:07:47.995Z,5.83
2019-03-04T08:11:11.923Z,6.13
2019-03-04T08:13:46.595Z,5.20
2019-03-04T08:16:17.155Z,5.20
2019-03-04T08:18:57.581Z,5.43
2019-03-04T08:21:29.713Z,5.60
2019-03-04T08:24:00.541Z,5.87
2019-03-04T08:26:31.371Z,5.77
2019-03-04T08:29:02.033Z,4.97
2019-03-04T08:31:34.041Z,5.40
2019-03-04T08:34:04.904Z,5.53
2019-03-04T08:36:35.935Z,5.50
2019-03-04T08:39:08.835Z,4.93
2019-03-04T08:41:40.685Z,5.50
2019-03-04T08:44:11.178Z,5.90
2019-03-04T08:46:41.799Z,5.17
2019-03-04T08:49:12.463Z,5.23
2019-03-04T08:51:43.272Z,5.03
2019-03-04T08:54:13.933Z,4.47
2019-03-04T08:56:44.883Z,4.73
2019-03-04T08:59:17.300Z,5.10
2019-03-04T09:01:47.996Z,4.67
2019-03-04T09:04:18.898Z,4.90
2019-03-04T09:06:50.000Z,5.03
2019-03-04T09:09:21.620Z,5.20
2019-03-04T09:11:52.616Z,3.97
2019-03-04T09:14:23.914Z,4.00
2019-03-04T09:16:54.856Z,4.30
2019-03-04T09:19:25.500Z,4.27
2019-03-04T09:21:56.501Z,4.13
2019-03-04T09:24:27.160Z,4.67
2019-03-04T09:26:58.272Z,4.60
2019-03-04T09:29:28.940Z,4.37
2019-03-04T09:31:59.806Z,4.43
2019-03-04T09:34:30.386Z,4.40
2019-03-04T09:37:02.529Z,4.47
2019-03-04T09:39:33.552Z,4.40
2019-03-04T09:42:13.014Z,4.70
2019-03-04T09:44:43.921Z,4.40
2019-03-04T09:47:14.606Z,4.47
2019-03-04T09:49:45.426Z,4.07
2019-03-04T09:52:21.809Z,3.73
2019-03-04T09:54:52.689Z,4.07
2019-03-04T09:57:23.241Z,4.87
2019-03-04T09:59:53.891Z,4.33
2019-03-04T10:02:32.893Z,4.87
2019-03-04T10:05:43.535Z,4.20
2019-03-04T10:08:32.623Z,4.17
2019-03-04T10:11:13.667Z,4.60
2019-03-04T10:13:53.803Z,4.73
2019-03-04T10:16:51.477Z,4.67
2019-03-04T10:19:50.827Z,4.73
2019-03-04T10:22:46.541Z,5.00
2019-03-04T10:25:53.357Z,4.60
2019-03-04T10:28:51.272Z,4.30
2019-03-04T10:31:50.336Z,4.67
2019-03-04T10:34:48.961Z,3.80
2019-03-04T10:38:08.522Z,3.53
2019-03-04T10:41:02.330Z,3.97
2019-03-04T10:44:14.870Z,3.60
2019-03-04T10:46:59.098Z,3.23
2019-03-04T10:50:02.130Z,3.40
2019-03-04T10:52:11.602Z,3.23
2019-03-04T10:54:42.452Z,3.80
2019-03-04T10:57:12.979Z,3.33
2019-03-04T10:59:43.671Z,3.67
2019-03-04T11:02:14.580Z,3.20
2019-03-04T11:04:45.434Z,3.93
2019-03-04T11:07:16.218Z,3.50
2019-03-04T11:09:47.062Z,3.80
2019-03-04T11:12:17.970Z,3.43
2019-03-04T11:14:48.625Z,3.40
2019-03-04T11:17:19.461Z,2.90
2019-03-04T11:19:50.299Z,2.70
2019-03-04T11:22:21.055Z,2.40
2019-03-04T11:25:01.034Z,2.80
2019-03-04T11:27:31.597Z,2.87
2019-03-04T11:30:02.211Z,2.97
2019-03-04T11:32:33.143Z,2.80
2019-03-04T11:35:03.831Z,3.00
2019-03-04T11:37:34.605Z,3.07
2019-03-04T11:43:51.405Z,4.00
2019-03-04T11:46:24.151Z,2.90
2019-03-04T11:48:54.880Z,3.27
2019-03-04T11:51:25.769Z,2.60
2019-03-04T11:53:56.470Z,2.40
2019-03-04T11:56:27.211Z,3.13
2019-03-04T11:58:57.894Z,3.20
2019-03-04T12:01:49.417Z,3.00
2019-03-04T12:04:19.992Z,3.00
2019-03-04T12:06:51.538Z,2.83
2019-03-04T12:09:22.361Z,2.57
2019-03-04T12:11:53.074Z,2.97
2019-03-04T12:14:23.727Z,2.70
2019-03-04T12:16:54.514Z,3.20
2019-03-04T12:19:25.163Z,2.70
2019-03-04T12:21:56.058Z,2.67
2019-03-04T12:24:26.595Z,2.80
2019-03-04T12:26:57.364Z,2.80
2019-03-04T12:29:28.191Z,3.30
2019-03-04T12:32:03.768Z,2.83
2019-03-04T12:34:34.370Z,2.97
2019-03-04T12:37:05.943Z,2.67
2019-03-04T12:39:36.515Z,2.77
2019-03-04T12:42:07.363Z,2.80
2019-03-04T12:53:43.010Z,2.53
2019-03-04T12:56:13.430Z,3.27
2019-03-04T12:58:44.023Z,3.00
2019-03-04T13:01:14.767Z,2.70
2019-03-04T13:03:45.513Z,2.77
2019-03-04T13:06:16.064Z,2.73
2019-03-04T13:08:47.079Z,2.57
2019-03-04T13:11:17.801Z,3.03
2019-03-04T13:13:48.636Z,2.77
2019-03-04T13:16:19.231Z,2.70
2019-03-04T13:18:49.735Z,2.93
2019-03-04T13:21:20.525Z,2.80
2019-03-04T13:23:52.129Z,3.00
2019-03-04T13:26:22.680Z,3.23
2019-03-04T13:28:53.197Z,2.63
2019-03-04T13:31:24.015Z,2.67
2019-03-04T13:33:54.600Z,2.97
2019-03-04T13:36:25.294Z,3.10
2019-03-04T13:38:55.923Z,2.90
2019-03-04T13:41:27.661Z,3.50
2019-03-04T13:43:58.268Z,3.00
2019-03-04T13:46:29.110Z,2.90
2019-03-04T13:48:59.905Z,3.17
2019-03-04T13:51:30.262Z,3.07
2019-03-04T13:54:00.828Z,2.90
2019-03-04T13:56:31.524Z,2.93
2019-03-04T13:59:02.042Z,3.27
2019-03-04T14:01:32.908Z,3.43
2019-03-04T14:04:03.838Z,3.17
2019-03-04T14:06:34.340Z,3.17
2019-03-04T14:09:06.097Z,3.33
2019-03-04T14:11:38.389Z,3.73
2019-03-04T14:14:09.054Z,3.00
2019-03-04T14:16:39.540Z,3.10
2019-03-04T14:19:10.380Z,3.33
2019-03-04T14:21:41.237Z,2.80
2019-03-04T14:24:11.882Z,3.20
2019-03-04T14:26:42.424Z,2.70
2019-03-04T14:29:13.021Z,3.33
2019-03-04T14:31:43.772Z,2.77
2019-03-04T14:34:14.211Z,2.77
2019-03-04T14:36:44.851Z,2.93
2019-03-04T14:39:16.784Z,3.10
2019-03-04T14:41:47.343Z,3.50
2019-03-04T14:44:18.151Z,3.67
2019-03-04T14:46:48.877Z,3.40
2019-03-04T14:49:19.342Z,3.50
2019-03-04T14:51:50.459Z,3.40
2019-03-04T14:54:21.119Z,3.10
2019-03-04T14:56:51.776Z,2.97
2019-03-04T14:59:22.591Z,3.40
2019-03-04T15:01:53.135Z,3.00
2019-03-04T15:04:23.560Z,3.60
2019-03-04T15:06:53.983Z,3.33
2019-03-04T15:09:24.644Z,3.00
2019-03-04T15:11:55.321Z,3.13
2019-03-04T15:14:26.000Z,3.30
2019-03-04T15:17:03.231Z,3.23
2019-03-04T15:19:28.866Z,3.30
2019-03-04T15:21:59.658Z,2.90
2019-03-04T15:24:30.669Z,3.83
2019-03-04T15:27:01.141Z,2.97
2019-03-04T15:29:31.804Z,3.33
2019-03-04T15:32:02.576Z,2.90
2019-03-04T15:34:33.300Z,3.30
2019-03-04T15:37:04.302Z,3.43
2019-03-04T15:39:34.998Z,3.13
2019-03-04T15:42:05.532Z,3.30
2019-03-04T15:44:36.146Z,3.40
2019-03-04T15:47:06.858Z,3.30
2019-03-04T15:49:37.620Z,3.53
2019-03-04T15:52:08.237Z,4.40
2019-03-04T15:54:38.992Z,2.90
2019-03-04T15:57:11.358Z,3.67
2019-03-04T15:59:42.170Z,2.90
2019-03-04T16:02:15.189Z,3.30
2019-03-04T16:04:46.126Z,3.10
2019-03-04T16:07:17.254Z,3.27
2019-03-04T16:09:48.100Z,2.93
2019-03-04T16:12:22.033Z,3.23
2019-03-04T16:14:52.617Z,4.77
2019-03-04T16:17:23.145Z,3.20
2019-03-04T16:19:53.873Z,3.10
2019-03-04T16:22:24.412Z,3.27
2019-03-04T16:24:56.268Z,2.97
2019-03-04T16:27:27.105Z,3.43
2019-03-04T16:29:57.993Z,3.70
2019-03-04T16:32:28.369Z,4.70
2019-03-04T16:34:58.985Z,3.63
2019-03-04T16:37:29.687Z,3.30
2019-03-04T16:40:00.525Z,3.23
2019-03-04T16:42:31.488Z,2.97
2019-03-04T16:45:02.069Z,3.60
2019-03-04T16:47:32.702Z,3.37
2019-03-04T16:50:03.782Z,3.20
2019-03-04T16:52:34.523Z,3.83
2019-03-04T16:55:05.380Z,3.63
2019-03-04T16:57:35.999Z,3.60
2019-03-04T17:00:08.513Z,3.57
2019-03-04T17:02:40.285Z,3.80
2019-03-04T17:05:12.336Z,4.17
2019-03-04T17:07:43.093Z,3.70
2019-03-04T17:10:14.411Z,4.00
2019-03-04T17:12:45.170Z,4.00
2019-03-04T17:15:18.058Z,4.40
2019-03-04T17:17:48.981Z,4.10
2019-03-04T17:20:20.174Z,4.80
2019-03-04T17:22:50.916Z,4.67
2019-03-04T17:25:42.237Z,4.23
2019-03-04T17:28:13.069Z,4.97
2019-03-04T17:30:44.108Z,5.10
2019-03-04T17:33:15.436Z,4.87
2019-03-04T17:35:46.360Z,4.50
2019-03-04T17:38:17.219Z,4.70
2019-03-04T17:40:48.547Z,5.10
2019-03-04T17:43:19.263Z,5.43
2019-03-04T17:45:49.775Z,5.73
2019-03-04T17:48:20.844Z,5.17
2019-03-04T17:50:52.221Z,4.90
2019-03-04T17:53:23.239Z,5.57
2019-03-04T17:55:54.217Z,5.07
2019-03-04T17:58:25.467Z,4.87
2019-03-04T18:00:56.613Z,5.23
2019-03-04T18:03:27.279Z,5.30
2019-03-04T18:05:59.283Z,5.47
2019-03-04T18:08:29.957Z,4.90
2019-03-04T18:11:00.834Z,5.40
2019-03-04T18:13:31.781Z,5.23
2019-03-04T18:16:02.303Z,5.30
2019-03-04T18:18:33.125Z,5.73
2019-03-04T18:21:05.553Z,4.53
2019-03-04T18:23:36.802Z,5.00
2019-03-04T18:26:17.722Z,5.03
2019-03-04T18:29:23.351Z,5.00
2019-03-04T18:32:14.340Z,5.20
2019-03-04T18:35:15.440Z,5.03
2019-03-04T18:38:14.972Z,5.50
2019-03-04T18:41:21.746Z,5.90
2019-03-04T18:44:21.165Z,5.30
2019-03-04T18:47:41.946Z,5.00
2019-03-04T18:50:14.008Z,5.33
2019-03-04T18:52:44.786Z,4.80
2019-03-04T18:55:18.274Z,4.80
2019-03-04T18:57:48.990Z,9.47
2019-03-04T19:00:21.544Z,5.83
2019-03-04T19:02:52.978Z,5.80
2019-03-04T19:05:24.542Z,6.47
2019-03-04T19:07:55.322Z,5.07
2019-03-04T19:10:26.569Z,4.70
2019-03-04T19:12:57.292Z,4.90
2019-03-04T19:15:28.259Z,5.37
2019-03-04T19:17:59.069Z,5.60
2019-03-04T19:20:30.104Z,5.63
2019-03-04T19:23:01.439Z,4.70
2019-03-04T19:25:32.771Z,4.27
2019-03-04T19:28:05.705Z,4.70
2019-03-04T19:30:36.790Z,5.10
2019-03-04T19:33:08.377Z,5.77
2019-03-04T19:35:39.149Z,6.07
2019-03-04T19:38:10.349Z,4.63
2019-03-04T19:40:41.233Z,5.03
2019-03-04T19:43:13.001Z,4.63
2019-03-04T19:45:44.582Z,4.70
2019-03-04T19:48:17.037Z,5.20
2019-03-04T19:50:48.741Z,4.57
2019-03-04T19:53:19.717Z,4.60
2019-03-04T19:55:50.447Z,5.47
2019-03-04T19:58:21.307Z,4.80
2019-03-04T20:00:52.127Z,4.33
2019-03-04T20:03:24.212Z,3.90
2019-03-04T20:05:55.164Z,4.27
2019-03-04T20:08:25.884Z,3.87
2019-03-04T20:10:57.241Z,4.43
2019-03-04T20:13:28.200Z,4.40
2019-03-04T20:15:59.076Z,4.53
2019-03-04T20:18:30.163Z,3.70
2019-03-04T20:21:01.185Z,3.23
2019-03-04T20:23:32.044Z,3.80
2019-03-04T20:26:02.889Z,3.30
2019-03-04T20:28:34.400Z,3.37
2019-03-04T20:31:05.310Z,3.53
2019-03-04T20:33:36.255Z,3.63
2019-03-04T20:36:06.842Z,3.77
2019-03-04T20:38:42.012Z,3.67
2019-03-04T20:41:16.208Z,4.00
2019-03-04T20:43:48.352Z,3.87
2019-03-04T20:46:19.313Z,4.10
2019-03-04T20:48:50.329Z,4.40
2019-03-04T20:51:21.238Z,3.87
2019-03-04T20:53:52.208Z,3.03
2019-03-04T20:56:22.929Z,4.13
2019-03-04T20:58:54.477Z,4.13
2019-03-04T21:01:26.063Z,3.70
2019-03-04T21:03:57.047Z,3.57
2019-03-04T21:06:28.141Z,3.70
2019-03-04T21:08:58.869Z,4.13
2019-03-04T21:11:31.039Z,3.57
2019-03-04T21:14:01.527Z,3.53
2019-03-04T21:16:32.396Z,3.30
2019-03-04T21:19:03.069Z,2.90
2019-03-04T21:21:33.857Z,3.30
2019-03-04T21:24:04.848Z,3.70
2019-03-04T21:26:39.786Z,3.30
2019-03-04T21:29:37.963Z,2.80
2019-03-04T21:32:33.392Z,2.90
2019-03-04T21:35:37.904Z,3.00
2019-03-04T21:38:09.734Z,3.03
2019-03-04T21:40:55.928Z,2.60
2019-03-04T21:43:37.823Z,2.37
2019-03-04T21:46:44.696Z,3.10
2019-03-04T21:49:16.586Z,2.90
2019-03-04T21:51:56.846Z,2.97
2019-03-04T21:54:27.658Z,2.87
2019-03-04T21:57:18.278Z,2.90
2019-03-04T21:59:49.047Z,2.60
2019-03-04T22:02:53.077Z,2.73
2019-03-04T22:05:23.892Z,2.83
2019-03-04T22:07:54.534Z,3.43
2019-03-04T22:10:25.337Z,2.67
2019-03-04T22:12:57.305Z,3.90
2019-03-04T22:15:28.414Z,3.50
2019-03-04T22:17:59.003Z,4.90
2019-03-04T22:20:29.607Z,2.90
2019-03-04T22:23:00.320Z,3.00
2019-03-04T22:25:31.130Z,3.20
2019-03-04T22:28:01.904Z,2.60
2019-03-04T22:30:32.467Z,2.60
2019-03-04T22:33:03.338Z,2.77
2019-03-04T22:35:33.874Z,2.73
2019-03-04T22:38:04.739Z,2.47
2019-03-04T22:40:35.332Z,3.23
2019-03-04T22:43:06.002Z,3.30
2019-03-04T22:45:36.723Z,3.43
2019-03-04T22:48:07.416Z,3.23
2019-03-04T22:50:38.097Z,3.43
2019-03-04T22:53:09.035Z,3.67
2019-03-04T22:55:39.682Z,2.97
2019-03-04T22:58:10.665Z,2.77
2019-03-04T23:01:41.774Z,2.23
2019-03-04T23:04:47.876Z,2.20
2019-03-04T23:07:39.109Z,2.83
2019-03-04T23:10:40.524Z,2.73
2019-03-04T23:13:52.819Z,2.43
2019-03-04T23:16:26.248Z,2.93
2019-03-04T23:18:57.092Z,3.03
2019-03-04T23:21:27.568Z,3.00
2019-03-04T23:23:58.244Z,2.00
2019-03-04T23:26:28.973Z,2.73
2019-03-04T23:28:59.562Z,2.27
2019-03-04T23:31:30.340Z,1.90
2019-03-04T23:34:00.862Z,2.13
2019-03-04T23:36:31.659Z,2.03
2019-03-04T23:39:02.288Z,2.03
2019-03-04T23:41:34.454Z,1.80
2019-03-04T23:44:05.180Z,1.67
2019-03-04T23:46:35.839Z,1.27
2019-03-04T23:49:07.536Z,1.47
2019-03-04T23:51:38.389Z,1.10
2019-03-04T23:54:08.879Z,1.37
2019-03-04T23:56:39.431Z,1.30
2019-03-04T23:59:10.237Z,1.23
